Airfield :







YOU CAN JOIN US ON...

 
LOGIN :

Register | Disclaimer

   EN    FR    IT 

 









Legend :    VFR   Marginal VFR   IFR   Intensive IFR   Very Intensive IFR
Visi :
Ceiling :
>= 8 km
>= 3000ft
5 to 8 km
1000 to 3000 ft
1500m to 5 km
500 to 1000 ft
800 to 1500m
200 to 500 ft
< 800m
< 200 ft
Symbols :   Thunderstorms  Fog  Heavy snow  Heavy precipitations  Wind > 20 kt






- Airport Elevation : 550 ft
- IATA code : YOY


CYOY - C J.H.L.(Joe) Lecomte) Heliport

CURRENT METAR :
  • 012200Z 22005KT 170V260 15SM BKN045 BKN070 14/09 A2979 RMK SC6AC1 DA882FT SLP093

EXPIRED METARs :
  • 012100Z 22008G16KT 15SM SCT040 BKN072 15/09 A2977 RMK SC4AC2 DA1050FT SLP086
  • 012000Z 23006G16KT 15SM SCT036 SCT075 16/10 A2976 RMK CU3AC1 DA1174FT SLP080

TAF TAF CYOY
Valid from the 01 at 18:00 until the 02 at 06:00 UTC


011733Z 0118/0206 24008G18KT P6SM SCT015 BKN030
TEMPO 0118/0124 5SM -SHRA BR BKN015 OVC030
BECMG 0122/0124 VRB03KT
FM020000 VRB03KT 3SM BR SCT006 OVC010
TEMPO 0200/0206 1SM -DZ BR OVC004 RMK FCST BASED ON AUTO OBS 020300-020600Z. NXT FCST BY 020000Z
CZUL FIR / North America



MET'MAP, your aeronautical weather chart ! - Copyright ORBIFLY December 2007 - Disclaimer

ORBIFLY MET'MAP TEAM :

Programming & Development : Alexandra Zaïnal
Concept & original design : Baudouin d'Aumeries
Assistance for programming : Marc-Olivier Méhu
Technical & hardware support : Manuel Goepfert

Contact : metmap@orbifly.com




SOURCES & CREDITS :

   NOAA